createdAt,value
2018-10-19T00:02:29.313Z,16.68
2018-10-19T00:08:24.323Z,20.24
2018-10-19T00:14:19.311Z,15.56
2018-10-19T00:20:14.373Z,17.76
2018-10-19T00:26:09.376Z,16.48
2018-10-19T00:32:04.344Z,16.01
2018-10-19T00:37:59.380Z,19.27
2018-10-19T00:43:54.374Z,21.02
2018-10-19T00:49:49.380Z,19.02
2018-10-19T00:55:44.365Z,17.7
2018-10-19T01:01:39.396Z,20.97
2018-10-19T01:07:34.406Z,21.08
2018-10-19T01:13:29.439Z,20.95
2018-10-19T01:19:24.391Z,22.84
2018-10-19T01:25:19.428Z,23.74
2018-10-19T01:31:14.405Z,22.36
2018-10-19T01:37:09.413Z,21.79
2018-10-19T01:43:04.499Z,22.81
2018-10-19T01:48:59.410Z,23.55
2018-10-19T01:54:54.473Z,23.13
2018-10-19T02:00:49.451Z,26.04
2018-10-19T02:06:44.489Z,26.22
2018-10-19T02:12:39.475Z,26.47
2018-10-19T02:18:34.451Z,21.1
2018-10-19T02:24:29.444Z,24.78
2018-10-19T02:30:24.463Z,23.83
2018-10-19T02:36:19.464Z,25.66
2018-10-19T02:42:14.491Z,22.78
2018-10-19T02:48:09.462Z,27.48
2018-10-19T02:54:04.490Z,26.06
2018-10-19T02:59:59.492Z,25.77
2018-10-19T03:05:54.567Z,24.19
2018-10-19T03:11:49.524Z,23.39
2018-10-19T03:17:44.512Z,27.01
2018-10-19T03:23:39.544Z,25.03
2018-10-19T03:29:34.577Z,23.9
2018-10-19T03:35:29.516Z,26.89
2018-10-19T03:41:24.557Z,21.39
2018-10-19T03:47:19.641Z,26.68
2018-10-19T03:53:14.612Z,26.21
2018-10-19T03:59:09.633Z,22.67
2018-10-19T04:05:04.573Z,22.32
2018-10-19T04:10:59.657Z,24.03
2018-10-19T04:16:54.645Z,27.06
2018-10-19T04:22:49.635Z,27.26
2018-10-19T04:28:44.597Z,26.55
2018-10-19T04:34:39.590Z,28.53
2018-10-19T04:40:34.623Z,28.64
2018-10-19T04:46:29.589Z,28.02
2018-10-19T04:52:24.626Z,29.77
2018-10-19T04:58:19.633Z,29.98
2018-10-19T05:04:14.584Z,26.26
2018-10-19T05:10:09.631Z,28.08
2018-10-19T05:16:04.633Z,27.45
2018-10-19T05:21:59.626Z,27.65
2018-10-19T05:27:54.622Z,29.54
2018-10-19T05:33:49.630Z,31.65
2018-10-19T05:39:44.649Z,33.23
2018-10-19T05:45:39.643Z,28.53
2018-10-19T05:51:34.667Z,30.75
2018-10-19T05:57:29.641Z,31.51
2018-10-19T06:03:24.670Z,29.77
2018-10-19T06:09:19.663Z,31.27
2018-10-19T06:15:14.664Z,29.84
2018-10-19T06:21:09.823Z,32.67
2018-10-19T06:27:04.670Z,34.2
2018-10-19T06:32:59.676Z,36.21
2018-10-19T06:38:54.690Z,31.49
2018-10-19T06:44:49.774Z,32.39
2018-10-19T06:50:44.709Z,31.26
2018-10-19T06:56:39.727Z,31.43
2018-10-19T07:02:34.745Z,25.88
2018-10-19T07:08:29.876Z,31.26
2018-10-19T07:14:24.713Z,29.73
2018-10-19T07:20:19.736Z,30.71
2018-10-19T07:26:14.873Z,31.25
2018-10-19T07:32:09.813Z,26.13
2018-10-19T07:38:04.846Z,23.64
2018-10-19T07:43:59.749Z,23.04
2018-10-19T07:49:54.803Z,24.53
2018-10-19T07:55:49.768Z,23.5
2018-10-19T08:01:44.790Z,21.54
2018-10-19T08:07:39.772Z,22.6
2018-10-19T08:13:34.774Z,20.57
2018-10-19T08:19:29.776Z,19.22
2018-10-19T08:25:24.811Z,15.94
2018-10-19T08:31:19.780Z,15.06
2018-10-19T08:37:14.840Z,17.1
2018-10-19T08:43:09.931Z,18.11
2018-10-19T08:49:04.989Z,14.63
2018-10-19T08:54:59.864Z,15.98
2018-10-19T09:00:54.831Z,11.71
2018-10-19T09:06:49.847Z,19.15
2018-10-19T09:12:44.938Z,12.88
2018-10-19T09:18:39.892Z,13.27
2018-10-19T09:24:34.865Z,13.09
2018-10-19T09:30:29.883Z,10.1
2018-10-19T09:36:25.067Z,15.83
2018-10-19T09:42:19.842Z,11.46
2018-10-19T09:48:14.879Z,13.56
2018-10-19T09:54:09.866Z,10.33
2018-10-19T10:00:04.881Z,13.33
2018-10-19T10:05:59.893Z,9.98
2018-10-19T10:11:54.940Z,13.93
2018-10-19T10:17:49.959Z,12.85
2018-10-19T10:23:44.894Z,12.43
2018-10-19T10:29:39.894Z,12.37
2018-10-19T10:35:34.928Z,14.28
2018-10-19T10:41:29.919Z,14.36
2018-10-19T10:47:24.915Z,10.94
2018-10-19T10:53:19.969Z,9.89
2018-10-19T10:59:14.945Z,13.43
2018-10-19T11:05:09.940Z,11.69
2018-10-19T11:11:04.998Z,9
2018-10-19T11:16:59.950Z,10.3
2018-10-19T11:22:55.016Z,9.43
2018-10-19T11:28:49.959Z,9.09
2018-10-19T11:34:44.957Z,10.64
2018-10-19T11:40:39.951Z,9.05
2018-10-19T11:46:34.997Z,11.42
2018-10-19T11:52:29.985Z,13.01
2018-10-19T11:58:24.977Z,9.76
2018-10-19T12:04:20.029Z,11.97
2018-10-19T12:10:15.083Z,13.18
2018-10-19T12:16:10.085Z,8.59
2018-10-19T12:22:05.039Z,8.46
2018-10-19T12:28:00.018Z,14.3
2018-10-19T12:33:55.034Z,9.76
2018-10-19T12:39:50.052Z,9.17
2018-10-19T12:45:45.063Z,10.78
2018-10-19T12:51:40.033Z,10.04
2018-10-19T12:57:35.177Z,10.9
2018-10-19T13:03:30.173Z,9.11
2018-10-19T13:09:25.127Z,13.63
2018-10-19T13:15:20.065Z,9.33
2018-10-19T13:21:15.171Z,10.83
2018-10-19T13:27:10.153Z,9.02
2018-10-19T13:33:05.181Z,12.95
2018-10-19T13:39:00.118Z,7.64
2018-10-19T13:44:55.109Z,10.78
2018-10-19T13:50:50.106Z,10.32
2018-10-19T13:56:45.105Z,8.4
2018-10-19T14:02:40.128Z,13.11
2018-10-19T14:08:35.193Z,8.7
2018-10-19T14:14:30.149Z,9.66
2018-10-19T14:20:25.137Z,9.99
2018-10-19T14:26:20.161Z,11.34
2018-10-19T14:32:15.156Z,9.25
2018-10-19T14:38:10.173Z,8.94
2018-10-19T14:44:05.212Z,12.8
2018-10-19T14:50:00.169Z,10.77
2018-10-19T14:55:55.153Z,10.75
2018-10-19T15:01:50.187Z,8.62
2018-10-19T15:07:45.200Z,9.79
2018-10-19T15:13:40.185Z,11
2018-10-19T15:19:35.222Z,10.34
2018-10-19T15:25:30.217Z,10.86
2018-10-19T15:31:25.219Z,11.81
2018-10-19T15:37:20.198Z,12.84
2018-10-19T15:43:15.267Z,14.93
2018-10-19T15:49:10.242Z,10.74
2018-10-19T15:55:05.226Z,12.23
2018-10-19T16:01:00.235Z,13.3
2018-10-19T16:06:55.247Z,13.65
2018-10-19T16:12:50.233Z,17.34
2018-10-19T16:18:45.257Z,16.3
2018-10-19T16:24:40.296Z,14.77
2018-10-19T16:30:35.333Z,15.67
2018-10-19T16:36:30.271Z,17.69
2018-10-19T17:00:10.480Z,16.29
2018-10-19T17:00:10.502Z,21.46
2018-10-19T17:00:10.528Z,21.46
2018-10-19T17:00:10.584Z,21.46
2018-10-19T17:06:05.350Z,21.24
2018-10-19T17:12:00.355Z,15.96
2018-10-19T17:17:55.386Z,18.68
2018-10-19T17:23:50.385Z,17.3
2018-10-19T17:29:45.356Z,18.93
2018-10-19T17:35:40.342Z,19.31
2018-10-19T17:41:35.319Z,22.28
2018-10-19T17:47:30.342Z,21.42
2018-10-19T17:53:25.343Z,25.59
2018-10-19T17:59:20.376Z,21.79
2018-10-19T18:05:15.414Z,160.94
2018-10-19T18:11:10.476Z,114.52
2018-10-19T18:17:05.445Z,36.69
2018-10-19T18:23:00.634Z,32.7
2018-10-19T18:28:55.479Z,37.48
2018-10-19T18:34:50.456Z,32.01
2018-10-19T18:40:45.387Z,33.92
2018-10-19T18:46:40.402Z,36.29
2018-10-19T18:52:35.398Z,32.79
2018-10-19T18:58:30.412Z,29.26
2018-10-19T19:04:25.449Z,30.13
2018-10-19T19:10:20.442Z,27.24
2018-10-19T19:16:15.430Z,27.02
2018-10-19T19:22:10.450Z,29.72
2018-10-19T19:28:05.440Z,27.01
2018-10-19T19:34:00.455Z,28.43
2018-10-19T19:39:55.462Z,30.47
2018-10-19T19:45:50.487Z,24.86
2018-10-19T19:51:45.464Z,28.61
2018-10-19T19:57:40.460Z,28.82
2018-10-19T20:03:35.447Z,26.16
2018-10-19T20:09:30.489Z,25.11
2018-10-19T20:15:25.474Z,22.27
2018-10-19T20:21:20.495Z,21.69
2018-10-19T20:27:15.477Z,20.43
2018-10-19T20:33:10.575Z,28.01
2018-10-19T20:39:05.517Z,20.29
2018-10-19T20:45:00.497Z,19.07
2018-10-19T20:50:55.538Z,21.84
2018-10-19T20:56:50.503Z,20.9
2018-10-19T21:02:45.521Z,19.17
2018-10-19T21:08:40.556Z,23.15
2018-10-19T21:14:35.549Z,20.88
2018-10-19T21:20:30.540Z,20.9
2018-10-19T21:26:25.583Z,23.67
2018-10-19T21:32:20.556Z,22.16
2018-10-19T21:38:15.670Z,22.32
2018-10-19T21:44:10.674Z,26.55
2018-10-19T21:50:05.761Z,23.9
2018-10-19T21:56:00.639Z,20.79
2018-10-19T22:01:55.621Z,20.01
2018-10-19T22:07:50.602Z,22.89
2018-10-19T22:13:45.597Z,25.17
2018-10-19T22:19:40.601Z,21.85
2018-10-19T22:25:35.588Z,20.99
2018-10-19T22:31:30.640Z,25.86
2018-10-19T22:37:25.638Z,22.93
2018-10-19T22:43:20.634Z,24.56
2018-10-19T22:49:15.793Z,26
2018-10-19T22:55:10.716Z,18.08
2018-10-19T23:01:05.701Z,24.82
2018-10-19T23:07:00.720Z,27.36
2018-10-19T23:12:55.720Z,22.91
2018-10-19T23:18:50.663Z,22.67
2018-10-19T23:24:45.663Z,24.67
2018-10-19T23:30:40.677Z,19.17
2018-10-19T23:36:35.723Z,21.77
2018-10-19T23:42:30.672Z,23.87
2018-10-19T23:48:25.686Z,19.16
2018-10-19T23:54:20.682Z,24.77
